sensor_id;sensor_type;location;lat;lon;timestamp;temperature;humidity
81488;DHT22;70897;52.464;13.428;2023-09-19T00:01:19;17.20;99.90
81488;DHT22;70897;52.464;13.428;2023-09-19T00:04:05;17.20;99.90
81488;DHT22;70897;52.464;13.428;2023-09-19T00:06:54;17.20;99.90
81488;DHT22;70897;52.464;13.428;2023-09-19T00:09:39;17.20;99.90
81488;DHT22;70897;52.464;13.428;2023-09-19T00:12:24;17.20;99.90
81488;DHT22;70897;52.464;13.428;2023-09-19T00:15:09;17.20;99.90
81488;DHT22;70897;52.464;13.428;2023-09-19T00:17:55;17.10;99.90
81488;DHT22;70897;52.464;13.428;2023-09-19T00:20:41;17.10;99.90
81488;DHT22;70897;52.464;13.428;2023-09-19T00:23:27;17.00;99.90
81488;DHT22;70897;52.464;13.428;2023-09-19T00:26:13;17.00;99.90
81488;DHT22;70897;52.464;13.428;2023-09-19T00:29:00;17.00;99.90
81488;DHT22;70897;52.464;13.428;2023-09-19T00:31:50;17.00;99.90
81488;DHT22;70897;52.464;13.428;2023-09-19T00:34:35;17.00;99.90
81488;DHT22;70897;52.464;13.428;2023-09-19T00:37:20;17.00;99.90
81488;DHT22;70897;52.464;13.428;2023-09-19T00:40:09;16.90;99.90
81488;DHT22;70897;52.464;13.428;2023-09-19T00:42:59;16.90;99.90
81488;DHT22;70897;52.464;13.428;2023-09-19T00:45:47;16.90;99.90
81488;DHT22;70897;52.464;13.428;2023-09-19T00:48:40;17.00;99.90
81488;DHT22;70897;52.464;13.428;2023-09-19T00:51:28;16.90;99.90
81488;DHT22;70897;52.464;13.428;2023-09-19T00:54:15;16.90;99.90
81488;DHT22;70897;52.464;13.428;2023-09-19T00:57:03;16.90;99.90
81488;DHT22;70897;52.464;13.428;2023-09-19T00:59:50;16.90;99.90
81488;DHT22;70897;52.464;13.428;2023-09-19T01:02:36;16.80;99.90
81488;DHT22;70897;52.464;13.428;2023-09-19T01:05:21;16.90;99.90
81488;DHT22;70897;52.464;13.428;2023-09-19T01:08:10;16.80;99.90
81488;DHT22;70897;52.464;13.428;2023-09-19T01:11:28;16.80;99.90
81488;DHT22;70897;52.464;13.428;2023-09-19T01:14:38;16.80;99.90
81488;DHT22;70897;52.464;13.428;2023-09-19T01:17:34;16.80;99.90
81488;DHT22;70897;52.464;13.428;2023-09-19T01:20:31;16.80;99.90
81488;DHT22;70897;52.464;13.428;2023-09-19T01:26:30;16.80;99.90
81488;DHT22;70897;52.464;13.428;2023-09-19T01:29:34;16.80;99.90
81488;DHT22;70897;52.464;13.428;2023-09-19T01:32:24;16.80;99.90
81488;DHT22;70897;52.464;13.428;2023-09-19T01:35:10;16.70;99.90
81488;DHT22;70897;52.464;13.428;2023-09-19T01:37:57;16.80;99.90
81488;DHT22;70897;52.464;13.428;2023-09-19T01:40:46;16.80;99.90
81488;DHT22;70897;52.464;13.428;2023-09-19T01:43:38;16.90;99.90
81488;DHT22;70897;52.464;13.428;2023-09-19T01:46:30;16.90;99.90
81488;DHT22;70897;52.464;13.428;2023-09-19T01:49:42;16.80;99.90
81488;DHT22;70897;52.464;13.428;2023-09-19T01:52:37;16.90;99.90
81488;DHT22;70897;52.464;13.428;2023-09-19T01:55:26;16.90;99.90
81488;DHT22;70897;52.464;13.428;2023-09-19T01:58:21;16.90;99.90
81488;DHT22;70897;52.464;13.428;2023-09-19T02:01:12;16.90;99.90
81488;DHT22;70897;52.464;13.428;2023-09-19T02:04:00;16.90;99.90
81488;DHT22;70897;52.464;13.428;2023-09-19T02:06:45;16.80;99.90
81488;DHT22;70897;52.464;13.428;2023-09-19T02:09:32;16.80;99.90
81488;DHT22;70897;52.464;13.428;2023-09-19T02:12:19;16.70;99.90
81488;DHT22;70897;52.464;13.428;2023-09-19T02:15:05;16.70;99.90
81488;DHT22;70897;52.464;13.428;2023-09-19T02:17:52;16.70;99.90
81488;DHT22;70897;52.464;13.428;2023-09-19T02:20:38;16.60;99.90
81488;DHT22;70897;52.464;13.428;2023-09-19T02:23:24;16.60;99.90
81488;DHT22;70897;52.464;13.428;2023-09-19T02:26:09;16.60;99.90
81488;DHT22;70897;52.464;13.428;2023-09-19T02:28:56;16.50;99.90
81488;DHT22;70897;52.464;13.428;2023-09-19T02:31:41;16.40;99.90
81488;DHT22;70897;52.464;13.428;2023-09-19T02:34:26;16.50;99.90
81488;DHT22;70897;52.464;13.428;2023-09-19T02:37:12;16.40;99.90
81488;DHT22;70897;52.464;13.428;2023-09-19T02:39:57;16.40;99.90
81488;DHT22;70897;52.464;13.428;2023-09-19T02:42:42;16.40;99.90
81488;DHT22;70897;52.464;13.428;2023-09-19T02:45:33;16.40;99.90
81488;DHT22;70897;52.464;13.428;2023-09-19T02:48:19;16.40;99.90
81488;DHT22;70897;52.464;13.428;2023-09-19T02:51:05;16.40;99.90
81488;DHT22;70897;52.464;13.428;2023-09-19T02:53:50;16.40;99.90
81488;DHT22;70897;52.464;13.428;2023-09-19T02:56:39;16.30;99.90
81488;DHT22;70897;52.464;13.428;2023-09-19T02:59:24;16.40;99.90
81488;DHT22;70897;52.464;13.428;2023-09-19T03:02:09;16.40;99.90
81488;DHT22;70897;52.464;13.428;2023-09-19T03:04:55;16.50;99.90
81488;DHT22;70897;52.464;13.428;2023-09-19T03:07:41;16.50;99.90
81488;DHT22;70897;52.464;13.428;2023-09-19T03:10:28;16.50;99.90
81488;DHT22;70897;52.464;13.428;2023-09-19T03:13:16;16.50;99.90
81488;DHT22;70897;52.464;13.428;2023-09-19T03:16:01;16.50;99.90
81488;DHT22;70897;52.464;13.428;2023-09-19T03:18:48;16.50;99.90
81488;DHT22;70897;52.464;13.428;2023-09-19T03:21:34;16.70;99.90
81488;DHT22;70897;52.464;13.428;2023-09-19T03:24:20;16.60;99.90
81488;DHT22;70897;52.464;13.428;2023-09-19T03:27:05;16.70;99.90
81488;DHT22;70897;52.464;13.428;2023-09-19T03:29:50;16.70;99.90
81488;DHT22;70897;52.464;13.428;2023-09-19T03:32:36;16.70;99.90
81488;DHT22;70897;52.464;13.428;2023-09-19T03:35:21;16.70;99.90
81488;DHT22;70897;52.464;13.428;2023-09-19T03:38:07;16.70;99.90
81488;DHT22;70897;52.464;13.428;2023-09-19T03:40:52;16.70;99.90
81488;DHT22;70897;52.464;13.428;2023-09-19T03:43:37;16.70;99.90
81488;DHT22;70897;52.464;13.428;2023-09-19T03:46:22;16.70;99.90
81488;DHT22;70897;52.464;13.428;2023-09-19T03:49:08;16.80;99.90
81488;DHT22;70897;52.464;13.428;2023-09-19T03:51:53;16.80;99.90
81488;DHT22;70897;52.464;13.428;2023-09-19T03:54:39;16.70;99.90
81488;DHT22;70897;52.464;13.428;2023-09-19T03:57:26;16.70;99.90
81488;DHT22;70897;52.464;13.428;2023-09-19T04:00:11;16.70;99.90
81488;DHT22;70897;52.464;13.428;2023-09-19T04:03:00;16.70;99.90
81488;DHT22;70897;52.464;13.428;2023-09-19T04:05:50;16.70;99.90
81488;DHT22;70897;52.464;13.428;2023-09-19T04:08:35;16.70;99.90
81488;DHT22;70897;52.464;13.428;2023-09-19T04:11:20;16.70;99.90
81488;DHT22;70897;52.464;13.428;2023-09-19T04:14:05;16.70;99.90
81488;DHT22;70897;52.464;13.428;2023-09-19T04:16:50;16.80;99.50
81488;DHT22;70897;52.464;13.428;2023-09-19T04:19:36;16.80;99.30
81488;DHT22;70897;52.464;13.428;2023-09-19T04:22:21;16.70;99.30
81488;DHT22;70897;52.464;13.428;2023-09-19T04:25:06;16.70;98.90
81488;DHT22;70897;52.464;13.428;2023-09-19T04:27:51;16.80;98.30
81488;DHT22;70897;52.464;13.428;2023-09-19T04:30:37;16.70;98.40
81488;DHT22;70897;52.464;13.428;2023-09-19T04:33:22;16.70;98.10
81488;DHT22;70897;52.464;13.428;2023-09-19T04:36:07;16.80;97.80
81488;DHT22;70897;52.464;13.428;2023-09-19T04:38:52;16.70;98.10
81488;DHT22;70897;52.464;13.428;2023-09-19T04:41:38;16.70;98.00
81488;DHT22;70897;52.464;13.428;2023-09-19T04:44:25;16.70;97.80
81488;DHT22;70897;52.464;13.428;2023-09-19T04:47:10;16.60;97.60
81488;DHT22;70897;52.464;13.428;2023-09-19T04:49:56;16.60;97.90
81488;DHT22;70897;52.464;13.428;2023-09-19T04:52:44;16.60;98.10
81488;DHT22;70897;52.464;13.428;2023-09-19T04:55:29;16.50;98.40
81488;DHT22;70897;52.464;13.428;2023-09-19T04:58:15;16.50;98.40
81488;DHT22;70897;52.464;13.428;2023-09-19T05:01:01;16.40;98.80
81488;DHT22;70897;52.464;13.428;2023-09-19T05:03:47;16.30;99.10
81488;DHT22;70897;52.464;13.428;2023-09-19T05:06:36;16.40;98.40
81488;DHT22;70897;52.464;13.428;2023-09-19T05:09:22;16.50;98.10
81488;DHT22;70897;52.464;13.428;2023-09-19T05:12:07;16.40;98.10
81488;DHT22;70897;52.464;13.428;2023-09-19T05:14:52;16.40;98.20
81488;DHT22;70897;52.464;13.428;2023-09-19T05:17:37;16.40;97.80
81488;DHT22;70897;52.464;13.428;2023-09-19T05:20:22;16.50;97.50
81488;DHT22;70897;52.464;13.428;2023-09-19T05:23:21;16.50;97.40
81488;DHT22;70897;52.464;13.428;2023-09-19T05:26:06;16.60;97.00
81488;DHT22;70897;52.464;13.428;2023-09-19T05:28:51;16.60;97.40
81488;DHT22;70897;52.464;13.428;2023-09-19T05:31:37;16.60;97.00
81488;DHT22;70897;52.464;13.428;2023-09-19T05:34:25;16.60;96.70
81488;DHT22;70897;52.464;13.428;2023-09-19T05:37:14;16.70;96.50
81488;DHT22;70897;52.464;13.428;2023-09-19T05:40:01;16.60;96.40
81488;DHT22;70897;52.464;13.428;2023-09-19T05:42:47;16.70;96.50
81488;DHT22;70897;52.464;13.428;2023-09-19T05:45:32;16.70;96.20
81488;DHT22;70897;52.464;13.428;2023-09-19T05:48:17;16.70;95.70
81488;DHT22;70897;52.464;13.428;2023-09-19T05:51:02;16.80;95.70
81488;DHT22;70897;52.464;13.428;2023-09-19T05:53:47;16.80;95.50
81488;DHT22;70897;52.464;13.428;2023-09-19T05:56:32;16.90;95.60
81488;DHT22;70897;52.464;13.428;2023-09-19T05:59:17;16.90;95.50
81488;DHT22;70897;52.464;13.428;2023-09-19T06:02:02;17.00;95.50
81488;DHT22;70897;52.464;13.428;2023-09-19T06:04:50;17.20;94.70
81488;DHT22;70897;52.464;13.428;2023-09-19T06:07:38;17.50;94.00
81488;DHT22;70897;52.464;13.428;2023-09-19T06:10:23;17.70;92.90
81488;DHT22;70897;52.464;13.428;2023-09-19T06:13:08;17.80;92.40
81488;DHT22;70897;52.464;13.428;2023-09-19T06:15:55;17.90;92.50
81488;DHT22;70897;52.464;13.428;2023-09-19T06:18:43;17.90;92.80
81488;DHT22;70897;52.464;13.428;2023-09-19T06:21:28;18.10;92.30
81488;DHT22;70897;52.464;13.428;2023-09-19T06:24:13;18.30;91.20
81488;DHT22;70897;52.464;13.428;2023-09-19T06:26:58;18.60;90.80
81488;DHT22;70897;52.464;13.428;2023-09-19T06:29:46;18.80;90.20
81488;DHT22;70897;52.464;13.428;2023-09-19T06:32:30;19.10;88.80
81488;DHT22;70897;52.464;13.428;2023-09-19T06:35:16;19.40;87.20
81488;DHT22;70897;52.464;13.428;2023-09-19T06:38:04;19.70;84.80
81488;DHT22;70897;52.464;13.428;2023-09-19T06:40:50;20.00;82.10
81488;DHT22;70897;52.464;13.428;2023-09-19T06:43:35;20.30;82.60
81488;DHT22;70897;52.464;13.428;2023-09-19T06:46:20;20.70;80.80
81488;DHT22;70897;52.464;13.428;2023-09-19T06:49:05;21.60;76.60
81488;DHT22;70897;52.464;13.428;2023-09-19T06:51:51;22.20;71.40
81488;DHT22;70897;52.464;13.428;2023-09-19T06:54:39;22.50;71.40
81488;DHT22;70897;52.464;13.428;2023-09-19T06:57:24;22.60;70.10
81488;DHT22;70897;52.464;13.428;2023-09-19T07:00:10;22.70;69.00
81488;DHT22;70897;52.464;13.428;2023-09-19T07:03:07;22.60;68.10
81488;DHT22;70897;52.464;13.428;2023-09-19T07:05:56;23.50;67.50
81488;DHT22;70897;52.464;13.428;2023-09-19T07:08:41;24.60;62.00
81488;DHT22;70897;52.464;13.428;2023-09-19T07:11:26;26.10;57.10
81488;DHT22;70897;52.464;13.428;2023-09-19T07:14:11;27.20;53.10
81488;DHT22;70897;52.464;13.428;2023-09-19T07:16:56;28.00;51.30
81488;DHT22;70897;52.464;13.428;2023-09-19T07:19:41;28.30;50.50
81488;DHT22;70897;52.464;13.428;2023-09-19T07:22:26;28.30;49.20
81488;DHT22;70897;52.464;13.428;2023-09-19T07:25:11;28.70;48.30
81488;DHT22;70897;52.464;13.428;2023-09-19T07:27:59;28.50;46.80
81488;DHT22;70897;52.464;13.428;2023-09-19T07:30:46;28.20;47.20
81488;DHT22;70897;52.464;13.428;2023-09-19T07:33:31;27.10;46.90
81488;DHT22;70897;52.464;13.428;2023-09-19T07:36:16;26.30;49.30
81488;DHT22;70897;52.464;13.428;2023-09-19T07:39:01;25.70;50.60
81488;DHT22;70897;52.464;13.428;2023-09-19T07:41:51;25.70;50.70
81488;DHT22;70897;52.464;13.428;2023-09-19T07:44:36;26.90;48.40
81488;DHT22;70897;52.464;13.428;2023-09-19T07:47:21;27.00;47.20
81488;DHT22;70897;52.464;13.428;2023-09-19T07:50:06;26.00;48.50
81488;DHT22;70897;52.464;13.428;2023-09-19T07:52:52;25.20;50.20
81488;DHT22;70897;52.464;13.428;2023-09-19T07:55:38;24.30;52.00
81488;DHT22;70897;52.464;13.428;2023-09-19T07:58:23;23.90;54.10
81488;DHT22;70897;52.464;13.428;2023-09-19T08:01:09;24.10;53.10
81488;DHT22;70897;52.464;13.428;2023-09-19T08:03:55;24.20;51.00
81488;DHT22;70897;52.464;13.428;2023-09-19T08:06:40;24.40;51.30
81488;DHT22;70897;52.464;13.428;2023-09-19T08:09:25;24.60;51.60
81488;DHT22;70897;52.464;13.428;2023-09-19T08:12:10;24.70;51.80
81488;DHT22;70897;52.464;13.428;2023-09-19T08:14:55;23.70;53.20
81488;DHT22;70897;52.464;13.428;2023-09-19T08:17:40;23.80;54.20
81488;DHT22;70897;52.464;13.428;2023-09-19T08:20:25;24.60;51.20
81488;DHT22;70897;52.464;13.428;2023-09-19T08:23:10;25.10;49.60
81488;DHT22;70897;52.464;13.428;2023-09-19T08:25:58;24.40;50.50
81488;DHT22;70897;52.464;13.428;2023-09-19T08:28:48;23.40;51.90
81488;DHT22;70897;52.464;13.428;2023-09-19T08:31:33;22.50;53.30
81488;DHT22;70897;52.464;13.428;2023-09-19T08:34:18;22.50;54.40
81488;DHT22;70897;52.464;13.428;2023-09-19T08:37:03;22.20;55.30
81488;DHT22;70897;52.464;13.428;2023-09-19T08:39:48;22.20;55.20
81488;DHT22;70897;52.464;13.428;2023-09-19T08:42:50;22.50;54.20
81488;DHT22;70897;52.464;13.428;2023-09-19T08:45:35;23.40;51.60
81488;DHT22;70897;52.464;13.428;2023-09-19T08:48:28;24.50;50.00
81488;DHT22;70897;52.464;13.428;2023-09-19T08:51:24;24.70;48.80
81488;DHT22;70897;52.464;13.428;2023-09-19T08:54:21;25.40;47.10
81488;DHT22;70897;52.464;13.428;2023-09-19T08:57:07;26.50;45.80
81488;DHT22;70897;52.464;13.428;2023-09-19T08:59:57;27.00;44.40
81488;DHT22;70897;52.464;13.428;2023-09-19T09:02:42;26.80;43.70
81488;DHT22;70897;52.464;13.428;2023-09-19T09:05:28;26.20;44.70
81488;DHT22;70897;52.464;13.428;2023-09-19T09:08:14;27.20;42.70
81488;DHT22;70897;52.464;13.428;2023-09-19T09:11:00;26.60;42.70
81488;DHT22;70897;52.464;13.428;2023-09-19T09:13:46;26.00;43.40
81488;DHT22;70897;52.464;13.428;2023-09-19T09:16:32;26.00;43.30
81488;DHT22;70897;52.464;13.428;2023-09-19T09:19:17;26.00;43.20
81488;DHT22;70897;52.464;13.428;2023-09-19T09:22:10;25.00;45.30
81488;DHT22;70897;52.464;13.428;2023-09-19T09:24:57;25.90;44.70
81488;DHT22;70897;52.464;13.428;2023-09-19T09:28:01;27.70;41.80
81488;DHT22;70897;52.464;13.428;2023-09-19T09:30:46;28.80;38.00
81488;DHT22;70897;52.464;13.428;2023-09-19T09:33:31;29.40;36.80
81488;DHT22;70897;52.464;13.428;2023-09-19T09:36:16;29.00;36.40
81488;DHT22;70897;52.464;13.428;2023-09-19T09:39:30;28.80;37.60
81488;DHT22;70897;52.464;13.428;2023-09-19T09:42:33;29.10;36.10
81488;DHT22;70897;52.464;13.428;2023-09-19T09:45:22;28.70;36.40
81488;DHT22;70897;52.464;13.428;2023-09-19T09:48:25;27.30;38.70
81488;DHT22;70897;52.464;13.428;2023-09-19T09:51:29;27.60;39.00
81488;DHT22;70897;52.464;13.428;2023-09-19T09:54:16;26.60;39.80
81488;DHT22;70897;52.464;13.428;2023-09-19T09:57:05;28.20;38.60
81488;DHT22;70897;52.464;13.428;2023-09-19T10:00:00;29.20;35.80
81488;DHT22;70897;52.464;13.428;2023-09-19T10:03:01;30.70;33.20
81488;DHT22;70897;52.464;13.428;2023-09-19T10:05:53;32.60;30.80
81488;DHT22;70897;52.464;13.428;2023-09-19T10:08:39;33.40;29.50
81488;DHT22;70897;52.464;13.428;2023-09-19T10:11:24;34.10;28.60
81488;DHT22;70897;52.464;13.428;2023-09-19T10:14:16;35.50;27.50
81488;DHT22;70897;52.464;13.428;2023-09-19T10:17:02;35.80;26.80
81488;DHT22;70897;52.464;13.428;2023-09-19T10:19:58;35.60;27.30
81488;DHT22;70897;52.464;13.428;2023-09-19T10:22:46;35.70;26.60
81488;DHT22;70897;52.464;13.428;2023-09-19T10:25:44;36.30;25.90
81488;DHT22;70897;52.464;13.428;2023-09-19T10:28:32;36.60;25.40
81488;DHT22;70897;52.464;13.428;2023-09-19T10:31:19;35.60;25.40
81488;DHT22;70897;52.464;13.428;2023-09-19T10:34:06;35.40;25.40
81488;DHT22;70897;52.464;13.428;2023-09-19T10:36:54;35.70;25.20
81488;DHT22;70897;52.464;13.428;2023-09-19T10:39:40;34.70;26.10
81488;DHT22;70897;52.464;13.428;2023-09-19T10:42:25;35.90;25.10
81488;DHT22;70897;52.464;13.428;2023-09-19T10:45:15;36.10;24.40
81488;DHT22;70897;52.464;13.428;2023-09-19T10:48:03;35.70;24.40
81488;DHT22;70897;52.464;13.428;2023-09-19T10:56:51;36.70;24.00
81488;DHT22;70897;52.464;13.428;2023-09-19T11:00:00;36.70;24.50
81488;DHT22;70897;52.464;13.428;2023-09-19T11:08:56;33.20;26.40
81488;DHT22;70897;52.464;13.428;2023-09-19T11:11:59;33.10;25.90
81488;DHT22;70897;52.464;13.428;2023-09-19T11:14:45;31.30;27.50
81488;DHT22;70897;52.464;13.428;2023-09-19T11:17:37;30.40;28.50
81488;DHT22;70897;52.464;13.428;2023-09-19T11:20:22;32.10;27.80
81488;DHT22;70897;52.464;13.428;2023-09-19T11:23:22;32.80;27.80
81488;DHT22;70897;52.464;13.428;2023-09-19T11:26:40;32.50;26.70
81488;DHT22;70897;52.464;13.428;2023-09-19T11:29:31;33.10;27.00
81488;DHT22;70897;52.464;13.428;2023-09-19T11:36:10;34.20;25.20
81488;DHT22;70897;52.464;13.428;2023-09-19T11:39:02;33.70;24.60
81488;DHT22;70897;52.464;13.428;2023-09-19T11:41:53;33.60;24.90
81488;DHT22;70897;52.464;13.428;2023-09-19T11:44:41;33.40;25.00
81488;DHT22;70897;52.464;13.428;2023-09-19T11:47:27;33.50;25.10
81488;DHT22;70897;52.464;13.428;2023-09-19T11:50:18;32.40;25.40
81488;DHT22;70897;52.464;13.428;2023-09-19T11:53:05;30.30;27.50
81488;DHT22;70897;52.464;13.428;2023-09-19T11:55:50;28.30;30.30
81488;DHT22;70897;52.464;13.428;2023-09-19T11:58:38;26.90;31.90
81488;DHT22;70897;52.464;13.428;2023-09-19T12:01:31;26.90;32.70
81488;DHT22;70897;52.464;13.428;2023-09-19T12:04:45;27.10;31.70
81488;DHT22;70897;52.464;13.428;2023-09-19T12:07:42;27.50;32.20
81488;DHT22;70897;52.464;13.428;2023-09-19T12:10:30;27.70;30.80
81488;DHT22;70897;52.464;13.428;2023-09-19T12:13:19;28.70;29.80
81488;DHT22;70897;52.464;13.428;2023-09-19T12:16:18;29.00;29.50
81488;DHT22;70897;52.464;13.428;2023-09-19T12:19:19;28.10;30.00
81488;DHT22;70897;52.464;13.428;2023-09-19T12:22:07;27.50;31.80
81488;DHT22;70897;52.464;13.428;2023-09-19T12:24:53;27.30;32.00
81488;DHT22;70897;52.464;13.428;2023-09-19T12:27:50;27.30;32.20
81488;DHT22;70897;52.464;13.428;2023-09-19T12:30:38;27.80;31.70
81488;DHT22;70897;52.464;13.428;2023-09-19T12:33:26;28.40;31.00
81488;DHT22;70897;52.464;13.428;2023-09-19T12:36:22;28.80;30.40
81488;DHT22;70897;52.464;13.428;2023-09-19T12:39:24;29.70;29.30
81488;DHT22;70897;52.464;13.428;2023-09-19T12:42:11;30.00;28.70
81488;DHT22;70897;52.464;13.428;2023-09-19T12:44:59;30.00;28.10
81488;DHT22;70897;52.464;13.428;2023-09-19T12:48:23;30.40;27.70
81488;DHT22;70897;52.464;13.428;2023-09-19T12:51:14;31.00;27.40
81488;DHT22;70897;52.464;13.428;2023-09-19T12:54:01;30.50;27.00
81488;DHT22;70897;52.464;13.428;2023-09-19T12:56:47;29.20;28.20
81488;DHT22;70897;52.464;13.428;2023-09-19T12:59:35;28.50;29.40
81488;DHT22;70897;52.464;13.428;2023-09-19T13:02:21;28.60;29.90
81488;DHT22;70897;52.464;13.428;2023-09-19T13:05:08;28.20;30.20
81488;DHT22;70897;52.464;13.428;2023-09-19T13:07:55;27.80;30.50
81488;DHT22;70897;52.464;13.428;2023-09-19T13:11:09;27.20;31.00
81488;DHT22;70897;52.464;13.428;2023-09-19T13:14:15;27.00;31.70
81488;DHT22;70897;52.464;13.428;2023-09-19T13:17:03;26.80;31.80
81488;DHT22;70897;52.464;13.428;2023-09-19T13:19:49;26.00;33.70
81488;DHT22;70897;52.464;13.428;2023-09-19T13:22:42;25.90;34.20
81488;DHT22;70897;52.464;13.428;2023-09-19T13:25:27;26.40;33.00
81488;DHT22;70897;52.464;13.428;2023-09-19T13:28:14;26.50;32.30
81488;DHT22;70897;52.464;13.428;2023-09-19T13:30:59;26.20;32.70
81488;DHT22;70897;52.464;13.428;2023-09-19T13:33:45;26.20;33.00
81488;DHT22;70897;52.464;13.428;2023-09-19T13:36:30;26.10;33.60
81488;DHT22;70897;52.464;13.428;2023-09-19T13:39:17;26.00;33.70
81488;DHT22;70897;52.464;13.428;2023-09-19T13:42:05;25.60;34.70
81488;DHT22;70897;52.464;13.428;2023-09-19T13:44:50;25.40;35.00
81488;DHT22;70897;52.464;13.428;2023-09-19T13:47:35;25.20;35.50
81488;DHT22;70897;52.464;13.428;2023-09-19T13:50:22;24.80;36.10
81488;DHT22;70897;52.464;13.428;2023-09-19T13:53:08;24.60;37.20
81488;DHT22;70897;52.464;13.428;2023-09-19T13:55:53;24.40;37.10
81488;DHT22;70897;52.464;13.428;2023-09-19T13:58:38;24.70;36.70
81488;DHT22;70897;52.464;13.428;2023-09-19T14:01:23;24.80;36.90
81488;DHT22;70897;52.464;13.428;2023-09-19T14:04:09;24.70;37.10
81488;DHT22;70897;52.464;13.428;2023-09-19T14:06:56;24.90;37.10
81488;DHT22;70897;52.464;13.428;2023-09-19T14:09:42;25.10;36.80
81488;DHT22;70897;52.464;13.428;2023-09-19T14:12:27;25.40;36.20
81488;DHT22;70897;52.464;13.428;2023-09-19T14:15:12;25.30;36.60
81488;DHT22;70897;52.464;13.428;2023-09-19T14:17:59;25.60;36.00
81488;DHT22;70897;52.464;13.428;2023-09-19T14:20:45;25.30;36.00
81488;DHT22;70897;52.464;13.428;2023-09-19T14:23:35;25.20;37.00
81488;DHT22;70897;52.464;13.428;2023-09-19T14:26:21;24.80;37.40
81488;DHT22;70897;52.464;13.428;2023-09-19T14:29:08;24.30;37.70
81488;DHT22;70897;52.464;13.428;2023-09-19T14:31:54;24.00;38.90
81488;DHT22;70897;52.464;13.428;2023-09-19T14:34:40;23.60;39.50
81488;DHT22;70897;52.464;13.428;2023-09-19T14:37:27;23.50;40.30
81488;DHT22;70897;52.464;13.428;2023-09-19T14:40:12;23.10;41.30
81488;DHT22;70897;52.464;13.428;2023-09-19T14:43:00;22.90;41.30
81488;DHT22;70897;52.464;13.428;2023-09-19T14:45:45;22.70;41.90
81488;DHT22;70897;52.464;13.428;2023-09-19T14:48:30;22.70;42.20
81488;DHT22;70897;52.464;13.428;2023-09-19T14:51:15;22.70;42.20
81488;DHT22;70897;52.464;13.428;2023-09-19T14:54:01;22.50;41.30
81488;DHT22;70897;52.464;13.428;2023-09-19T14:56:47;22.50;41.60
81488;DHT22;70897;52.464;13.428;2023-09-19T14:59:38;22.40;41.90
81488;DHT22;70897;52.464;13.428;2023-09-19T15:02:23;22.40;42.20
81488;DHT22;70897;52.464;13.428;2023-09-19T15:05:08;22.30;43.30
81488;DHT22;70897;52.464;13.428;2023-09-19T15:07:53;22.30;42.80
81488;DHT22;70897;52.464;13.428;2023-09-19T15:10:38;22.20;42.60
81488;DHT22;70897;52.464;13.428;2023-09-19T15:13:24;22.10;43.50
81488;DHT22;70897;52.464;13.428;2023-09-19T15:16:13;22.00;43.10
81488;DHT22;70897;52.464;13.428;2023-09-19T15:18:59;22.00;42.30
81488;DHT22;70897;52.464;13.428;2023-09-19T15:21:44;22.00;42.50
81488;DHT22;70897;52.464;13.428;2023-09-19T15:24:29;21.90;42.70
81488;DHT22;70897;52.464;13.428;2023-09-19T15:27:14;21.70;43.50
81488;DHT22;70897;52.464;13.428;2023-09-19T15:29:59;21.60;43.30
81488;DHT22;70897;52.464;13.428;2023-09-19T15:32:45;21.50;43.70
81488;DHT22;70897;52.464;13.428;2023-09-19T15:35:30;21.50;44.50
81488;DHT22;70897;52.464;13.428;2023-09-19T15:38:14;21.40;45.00
81488;DHT22;70897;52.464;13.428;2023-09-19T15:41:00;21.40;45.40
81488;DHT22;70897;52.464;13.428;2023-09-19T15:43:45;21.40;46.10
81488;DHT22;70897;52.464;13.428;2023-09-19T15:46:31;21.30;45.30
81488;DHT22;70897;52.464;13.428;2023-09-19T15:49:19;21.30;46.50
81488;DHT22;70897;52.464;13.428;2023-09-19T15:52:05;21.30;46.20
81488;DHT22;70897;52.464;13.428;2023-09-19T15:54:50;21.30;47.20
81488;DHT22;70897;52.464;13.428;2023-09-19T15:57:45;21.30;46.90
81488;DHT22;70897;52.464;13.428;2023-09-19T16:00:30;21.30;46.60
81488;DHT22;70897;52.464;13.428;2023-09-19T16:03:15;21.20;46.80
81488;DHT22;70897;52.464;13.428;2023-09-19T16:06:00;21.10;46.90
81488;DHT22;70897;52.464;13.428;2023-09-19T16:08:47;21.00;47.70
81488;DHT22;70897;52.464;13.428;2023-09-19T16:11:34;20.90;47.80
81488;DHT22;70897;52.464;13.428;2023-09-19T16:14:20;20.80;48.00
81488;DHT22;70897;52.464;13.428;2023-09-19T16:17:05;20.80;48.30
81488;DHT22;70897;52.464;13.428;2023-09-19T16:19:52;20.70;48.90
81488;DHT22;70897;52.464;13.428;2023-09-19T16:22:37;20.60;49.30
81488;DHT22;70897;52.464;13.428;2023-09-19T16:25:22;20.50;49.50
81488;DHT22;70897;52.464;13.428;2023-09-19T16:28:08;20.40;49.50
81488;DHT22;70897;52.464;13.428;2023-09-19T16:30:53;20.30;50.00
81488;DHT22;70897;52.464;13.428;2023-09-19T16:33:40;20.20;50.30
81488;DHT22;70897;52.464;13.428;2023-09-19T16:36:25;20.10;50.70
81488;DHT22;70897;52.464;13.428;2023-09-19T16:39:10;20.00;51.10
81488;DHT22;70897;52.464;13.428;2023-09-19T16:41:55;19.90;51.40
81488;DHT22;70897;52.464;13.428;2023-09-19T16:44:40;19.80;52.70
81488;DHT22;70897;52.464;13.428;2023-09-19T16:47:25;19.60;51.60
81488;DHT22;70897;52.464;13.428;2023-09-19T16:50:10;19.60;51.20
81488;DHT22;70897;52.464;13.428;2023-09-19T16:52:56;19.50;51.70
81488;DHT22;70897;52.464;13.428;2023-09-19T16:55:41;19.40;51.90
81488;DHT22;70897;52.464;13.428;2023-09-19T16:58:27;19.30;52.90
81488;DHT22;70897;52.464;13.428;2023-09-19T17:01:13;19.20;53.00
81488;DHT22;70897;52.464;13.428;2023-09-19T17:03:58;19.10;52.80
81488;DHT22;70897;52.464;13.428;2023-09-19T17:06:45;19.00;52.70
81488;DHT22;70897;52.464;13.428;2023-09-19T17:09:31;19.00;53.10
81488;DHT22;70897;52.464;13.428;2023-09-19T17:12:17;18.90;52.90
81488;DHT22;70897;52.464;13.428;2023-09-19T17:15:02;18.70;53.30
81488;DHT22;70897;52.464;13.428;2023-09-19T17:17:47;18.60;53.70
81488;DHT22;70897;52.464;13.428;2023-09-19T17:20:32;18.50;54.00
81488;DHT22;70897;52.464;13.428;2023-09-19T17:23:17;18.50;54.30
81488;DHT22;70897;52.464;13.428;2023-09-19T17:28:51;18.40;54.60
81488;DHT22;70897;52.464;13.428;2023-09-19T17:31:36;18.30;55.30
81488;DHT22;70897;52.464;13.428;2023-09-19T17:34:23;18.20;55.20
81488;DHT22;70897;52.464;13.428;2023-09-19T17:37:08;18.10;55.50
81488;DHT22;70897;52.464;13.428;2023-09-19T17:39:56;18.00;56.30
81488;DHT22;70897;52.464;13.428;2023-09-19T17:42:41;17.90;56.10
81488;DHT22;70897;52.464;13.428;2023-09-19T17:45:28;17.90;56.20